sensor_id;sensor_type;location;lat;lon;timestamp;pressure;altitude;pressure_sealevel;temperature;humidity
47536;BME280;33278;50.826;9.030;2022-08-19T00:01:07;98298.63;;;22.12;57.80
47536;BME280;33278;50.826;9.030;2022-08-19T00:03:38;98302.44;;;22.11;58.21
47536;BME280;33278;50.826;9.030;2022-08-19T00:06:08;98298.16;;;22.10;58.09
47536;BME280;33278;50.826;9.030;2022-08-19T00:08:39;98294.66;;;22.09;58.06
47536;BME280;33278;50.826;9.030;2022-08-19T00:11:10;98300.84;;;22.10;58.26
47536;BME280;33278;50.826;9.030;2022-08-19T00:13:41;98307.09;;;22.10;58.12
47536;BME280;33278;50.826;9.030;2022-08-19T00:16:11;98311.72;;;22.10;58.13
47536;BME280;33278;50.826;9.030;2022-08-19T00:18:42;98308.22;;;22.09;58.24
47536;BME280;33278;50.826;9.030;2022-08-19T00:21:13;98305.50;;;22.09;58.22
47536;BME280;33278;50.826;9.030;2022-08-19T00:23:44;98306.16;;;22.06;58.21
47536;BME280;33278;50.826;9.030;2022-08-19T00:26:14;98292.13;;;22.04;58.12
47536;BME280;33278;50.826;9.030;2022-08-19T00:28:44;98278.56;;;22.04;58.21
47536;BME280;33278;50.826;9.030;2022-08-19T00:31:15;98277.44;;;22.05;58.35
47536;BME280;33278;50.826;9.030;2022-08-19T00:33:46;98266.94;;;22.04;58.32
47536;BME280;33278;50.826;9.030;2022-08-19T00:36:19;98269.66;;;22.04;58.17
47536;BME280;33278;50.826;9.030;2022-08-19T00:38:50;98266.94;;;22.04;58.41
47536;BME280;33278;50.826;9.030;2022-08-19T00:41:23;98270.44;;;22.04;58.11
47536;BME280;33278;50.826;9.030;2022-08-19T00:44:05;98271.56;;;22.03;58.27
47536;BME280;33278;50.826;9.030;2022-08-19T00:46:38;98265.34;;;22.03;58.40
47536;BME280;33278;50.826;9.030;2022-08-19T00:49:21;98259.59;;;22.04;58.27
47536;BME280;33278;50.826;9.030;2022-08-19T00:51:57;98262.66;;;22.03;57.99
47536;BME280;33278;50.826;9.030;2022-08-19T00:54:30;98254.16;;;22.04;58.22
47536;BME280;33278;50.826;9.030;2022-08-19T00:57:04;98251.13;;;22.06;58.14
47536;BME280;33278;50.826;9.030;2022-08-19T00:59:38;98253.84;;;22.06;58.09
47536;BME280;33278;50.826;9.030;2022-08-19T01:02:09;98254.16;;;22.04;58.19
47536;BME280;33278;50.826;9.030;2022-08-19T01:04:39;98252.91;;;22.02;58.50
47536;BME280;33278;50.826;9.030;2022-08-19T01:07:10;98255.63;;;22.02;58.20
47536;BME280;33278;50.826;9.030;2022-08-19T01:09:40;98259.47;;;22.01;58.53
47536;BME280;33278;50.826;9.030;2022-08-19T01:12:10;98257.09;;;21.99;58.34
47536;BME280;33278;50.826;9.030;2022-08-19T01:14:41;98258.69;;;22.00;58.31
47536;BME280;33278;50.826;9.030;2022-08-19T01:17:12;98252.44;;;22.00;58.53
47536;BME280;33278;50.826;9.030;2022-08-19T01:19:43;98258.56;;;21.96;58.45
47536;BME280;33278;50.826;9.030;2022-08-19T01:22:27;98253.91;;;21.97;58.32
47536;BME280;33278;50.826;9.030;2022-08-19T01:25:00;98241.84;;;21.94;58.54
47536;BME280;33278;50.826;9.030;2022-08-19T01:27:39;98240.72;;;21.95;58.44
47536;BME280;33278;50.826;9.030;2022-08-19T01:30:20;98238.34;;;21.94;58.87
47536;BME280;33278;50.826;9.030;2022-08-19T01:32:53;98229.84;;;21.95;58.36
47536;BME280;33278;50.826;9.030;2022-08-19T01:35:25;98239.25;;;21.98;58.53
47536;BME280;33278;50.826;9.030;2022-08-19T01:38:05;98241.16;;;21.97;58.46
47536;BME280;33278;50.826;9.030;2022-08-19T01:40:40;98245.78;;;21.97;58.64
47536;BME280;33278;50.826;9.030;2022-08-19T01:43:12;98239.25;;;21.98;58.35
47536;BME280;33278;50.826;9.030;2022-08-19T01:45:42;98245.00;;;21.96;58.85
47536;BME280;33278;50.826;9.030;2022-08-19T01:48:13;98245.78;;;21.97;58.51
47536;BME280;33278;50.826;9.030;2022-08-19T01:50:44;98246.59;;;21.97;58.49
47536;BME280;33278;50.826;9.030;2022-08-19T01:53:14;98252.69;;;21.94;58.83
47536;BME280;33278;50.826;9.030;2022-08-19T01:55:45;98247.72;;;21.96;58.88
47536;BME280;33278;50.826;9.030;2022-08-19T01:58:19;98245.47;;;21.98;58.57
47536;BME280;33278;50.826;9.030;2022-08-19T02:00:50;98246.25;;;21.99;58.75
47536;BME280;33278;50.826;9.030;2022-08-19T02:03:21;98245.91;;;22.01;58.53
47536;BME280;33278;50.826;9.030;2022-08-19T02:06:00;98252.38;;;22.08;58.65
47536;BME280;33278;50.826;9.030;2022-08-19T02:08:35;98242.00;;;22.10;58.76
47536;BME280;33278;50.826;9.030;2022-08-19T02:11:07;98244.25;;;22.08;58.69
47536;BME280;33278;50.826;9.030;2022-08-19T02:13:37;98239.47;;;22.05;58.65
47536;BME280;33278;50.826;9.030;2022-08-19T02:16:07;98249.31;;;22.10;58.71
47536;BME280;33278;50.826;9.030;2022-08-19T02:18:38;98243.59;;;22.24;58.72
47536;BME280;33278;50.826;9.030;2022-08-19T02:21:08;98252.38;;;22.21;59.29
47536;BME280;33278;50.826;9.030;2022-08-19T02:23:38;98252.38;;;22.21;58.94
47536;BME280;33278;50.826;9.030;2022-08-19T02:26:10;98252.06;;;22.35;59.25
47536;BME280;33278;50.826;9.030;2022-08-19T02:28:41;98249.81;;;22.37;59.11
47536;BME280;33278;50.826;9.030;2022-08-19T02:31:13;98256.03;;;22.37;59.32
47536;BME280;33278;50.826;9.030;2022-08-19T02:33:45;98254.56;;;22.40;59.81
47536;BME280;33278;50.826;9.030;2022-08-19T02:36:16;98251.50;;;22.41;59.57
47536;BME280;33278;50.826;9.030;2022-08-19T02:38:47;98240.09;;;22.36;59.88
47536;BME280;33278;50.826;9.030;2022-08-19T02:41:22;98234.09;;;22.42;59.43
47536;BME280;33278;50.826;9.030;2022-08-19T02:43:54;98236.03;;;22.42;59.84
47536;BME280;33278;50.826;9.030;2022-08-19T02:46:27;98226.41;;;22.32;60.12
47536;BME280;33278;50.826;9.030;2022-08-19T02:49:00;98226.59;;;22.27;60.28
47536;BME280;33278;50.826;9.030;2022-08-19T02:51:35;98226.94;;;22.25;60.13
47536;BME280;33278;50.826;9.030;2022-08-19T02:54:08;98237.34;;;22.23;60.20
47536;BME280;33278;50.826;9.030;2022-08-19T02:56:40;98247.41;;;22.23;60.50
47536;BME280;33278;50.826;9.030;2022-08-19T02:59:11;98243.13;;;22.22;60.51
47536;BME280;33278;50.826;9.030;2022-08-19T03:01:41;98242.66;;;22.20;60.39
47536;BME280;33278;50.826;9.030;2022-08-19T03:04:14;98244.25;;;22.21;60.51
47536;BME280;33278;50.826;9.030;2022-08-19T03:06:46;98242.66;;;22.20;60.37
47536;BME280;33278;50.826;9.030;2022-08-19T03:09:19;98256.56;;;22.18;60.65
47536;BME280;33278;50.826;9.030;2022-08-19T03:11:49;98262.78;;;22.19;60.62
47536;BME280;33278;50.826;9.030;2022-08-19T03:14:20;98253.06;;;22.18;60.52
47536;BME280;33278;50.826;9.030;2022-08-19T03:16:51;98265.06;;;22.17;60.62
47536;BME280;33278;50.826;9.030;2022-08-19T03:19:22;98266.19;;;22.16;60.81
47536;BME280;33278;50.826;9.030;2022-08-19T03:21:52;98266.19;;;22.16;60.56
47536;BME280;33278;50.826;9.030;2022-08-19T03:24:23;98268.19;;;22.19;60.77
47536;BME280;33278;50.826;9.030;2022-08-19T03:26:54;98271.25;;;22.17;60.94
47536;BME280;33278;50.826;9.030;2022-08-19T03:29:29;98266.19;;;22.16;60.51
47536;BME280;33278;50.826;9.030;2022-08-19T03:32:04;98271.25;;;22.17;60.65
47536;BME280;33278;50.826;9.030;2022-08-19T03:34:37;98269.66;;;22.16;60.57
47536;BME280;33278;50.826;9.030;2022-08-19T03:37:09;98276.69;;;22.17;60.57
47536;BME280;33278;50.826;9.030;2022-08-19T03:39:40;98278.16;;;22.14;60.81
47536;BME280;33278;50.826;9.030;2022-08-19T03:42:12;98284.72;;;22.13;60.70
47536;BME280;33278;50.826;9.030;2022-08-19T03:44:42;98282.81;;;22.14;61.07
47536;BME280;33278;50.826;9.030;2022-08-19T03:47:14;98279.28;;;22.13;60.93
47536;BME280;33278;50.826;9.030;2022-08-19T03:49:45;98282.00;;;22.13;60.81
47536;BME280;33278;50.826;9.030;2022-08-19T03:52:16;98283.13;;;22.12;60.96
47536;BME280;33278;50.826;9.030;2022-08-19T03:54:46;98279.97;;;22.10;60.97
47536;BME280;33278;50.826;9.030;2022-08-19T03:57:16;98291.25;;;22.12;61.00
47536;BME280;33278;50.826;9.030;2022-08-19T03:59:47;98296.69;;;22.12;61.05
47536;BME280;33278;50.826;9.030;2022-08-19T04:02:17;98294.78;;;22.13;60.84
47536;BME280;33278;50.826;9.030;2022-08-19T04:04:47;98293.97;;;22.12;61.00
47536;BME280;33278;50.826;9.030;2022-08-19T04:07:18;98297.03;;;22.11;60.88
47536;BME280;33278;50.826;9.030;2022-08-19T04:09:51;98291.59;;;22.11;61.00
47536;BME280;33278;50.826;9.030;2022-08-19T04:12:22;98288.09;;;22.10;60.75
47536;BME280;33278;50.826;9.030;2022-08-19T04:14:52;98291.13;;;22.09;60.92
47536;BME280;33278;50.826;9.030;2022-08-19T04:17:22;98285.72;;;22.09;60.81
47536;BME280;33278;50.826;9.030;2022-08-19T04:19:52;98288.41;;;22.09;61.21
47536;BME280;33278;50.826;9.030;2022-08-19T04:22:23;98289.22;;;22.09;60.95
47536;BME280;33278;50.826;9.030;2022-08-19T04:24:53;98297.38;;;22.09;60.87
47536;BME280;33278;50.826;9.030;2022-08-19T04:27:23;98290.34;;;22.08;61.27
47536;BME280;33278;50.826;9.030;2022-08-19T04:29:54;98291.13;;;22.09;60.78
47536;BME280;33278;50.826;9.030;2022-08-19T04:32:25;98284.94;;;22.08;61.23
47536;BME280;33278;50.826;9.030;2022-08-19T04:34:55;98280.28;;;22.09;60.99
47536;BME280;33278;50.826;9.030;2022-08-19T04:37:27;98281.88;;;22.10;60.99
47536;BME280;33278;50.826;9.030;2022-08-19T04:39:57;98275.97;;;22.08;61.12
47536;BME280;33278;50.826;9.030;2022-08-19T04:42:46;98283.34;;;22.07;61.02
47536;BME280;33278;50.826;9.030;2022-08-19T04:45:16;98275.97;;;22.08;61.33
47536;BME280;33278;50.826;9.030;2022-08-19T04:47:47;98277.91;;;22.07;61.12
47536;BME280;33278;50.826;9.030;2022-08-19T04:50:17;98276.78;;;22.08;61.12
47536;BME280;33278;50.826;9.030;2022-08-19T04:52:51;98287.63;;;22.08;61.23
47536;BME280;33278;50.826;9.030;2022-08-19T04:55:21;98288.41;;;22.09;61.27
47536;BME280;33278;50.826;9.030;2022-08-19T04:57:52;98289.53;;;22.08;61.30
47536;BME280;33278;50.826;9.030;2022-08-19T05:00:22;98291.47;;;22.07;61.32
47536;BME280;33278;50.826;9.030;2022-08-19T05:02:53;98291.47;;;22.07;61.41
47536;BME280;33278;50.826;9.030;2022-08-19T05:05:23;98289.88;;;22.06;61.62
47536;BME280;33278;50.826;9.030;2022-08-19T05:07:53;98295.78;;;22.08;61.04
47536;BME280;33278;50.826;9.030;2022-08-19T05:10:25;98294.53;;;22.06;61.53
47536;BME280;33278;50.826;9.030;2022-08-19T05:12:56;98299.16;;;22.05;61.75
47536;BME280;33278;50.826;9.030;2022-08-19T05:15:27;98296.91;;;22.07;61.50
47536;BME280;33278;50.826;9.030;2022-08-19T05:17:57;98306.97;;;22.07;61.73
47536;BME280;33278;50.826;9.030;2022-08-19T05:20:46;98307.28;;;22.05;61.58
47536;BME280;33278;50.826;9.030;2022-08-19T05:23:35;98306.16;;;22.06;61.52
47536;BME280;33278;50.826;9.030;2022-08-19T05:26:05;98314.31;;;22.06;61.53
47536;BME280;33278;50.826;9.030;2022-08-19T05:28:35;98307.28;;;22.05;61.50
47536;BME280;33278;50.826;9.030;2022-08-19T05:31:06;98307.75;;;22.07;61.55
47536;BME280;33278;50.826;9.030;2022-08-19T05:33:36;98298.50;;;22.08;61.34
47536;BME280;33278;50.826;9.030;2022-08-19T05:36:07;98308.53;;;22.08;61.63
47536;BME280;33278;50.826;9.030;2022-08-19T05:38:37;98305.81;;;22.08;61.69
47536;BME280;33278;50.826;9.030;2022-08-19T05:41:13;98303.09;;;22.08;61.74
47536;BME280;33278;50.826;9.030;2022-08-19T05:43:43;98300.09;;;22.09;61.54
47536;BME280;33278;50.826;9.030;2022-08-19T05:46:18;98300.09;;;22.09;61.52
47536;BME280;33278;50.826;9.030;2022-08-19T05:48:49;98297.81;;;22.11;61.19
47536;BME280;33278;50.826;9.030;2022-08-19T05:51:19;98290.81;;;22.10;61.16
47536;BME280;33278;50.826;9.030;2022-08-19T05:53:50;98291.94;;;22.09;60.84
47536;BME280;33278;50.826;9.030;2022-08-19T05:56:20;98293.06;;;22.08;61.20
47536;BME280;33278;50.826;9.030;2022-08-19T05:58:51;98296.56;;;22.09;60.90
47536;BME280;33278;50.826;9.030;2022-08-19T06:01:22;98292.72;;;22.10;61.03
47536;BME280;33278;50.826;9.030;2022-08-19T06:03:52;98298.97;;;22.10;61.14
47536;BME280;33278;50.826;9.030;2022-08-19T06:06:22;98301.66;;;22.10;61.08
47536;BME280;33278;50.826;9.030;2022-08-19T06:08:53;98306.28;;;22.10;60.82
47536;BME280;33278;50.826;9.030;2022-08-19T06:11:31;98305.50;;;22.09;61.09
47536;BME280;33278;50.826;9.030;2022-08-19T06:14:08;98305.16;;;22.11;61.03
47536;BME280;33278;50.826;9.030;2022-08-19T06:16:40;98303.22;;;22.11;61.17
47536;BME280;33278;50.826;9.030;2022-08-19T06:19:14;98304.03;;;22.12;60.75
47536;BME280;33278;50.826;9.030;2022-08-19T06:21:47;98309.81;;;22.10;61.02
47536;BME280;33278;50.826;9.030;2022-08-19T06:24:21;98308.00;;;22.14;60.72
47536;BME280;33278;50.826;9.030;2022-08-19T06:26:54;98314.53;;;22.13;60.34
47536;BME280;33278;50.826;9.030;2022-08-19T06:29:26;98314.53;;;22.13;60.62
47536;BME280;33278;50.826;9.030;2022-08-19T06:31:58;98330.81;;;22.13;60.79
47536;BME280;33278;50.826;9.030;2022-08-19T06:34:31;98318.38;;;22.12;59.97
47536;BME280;33278;50.826;9.030;2022-08-19T06:37:02;98334.66;;;22.12;59.72
47536;BME280;33278;50.826;9.030;2022-08-19T06:39:36;98335.47;;;22.13;59.58
47536;BME280;33278;50.826;9.030;2022-08-19T06:42:09;98343.94;;;22.11;59.48
47536;BME280;33278;50.826;9.030;2022-08-19T06:44:45;98353.66;;;22.12;60.48
47536;BME280;33278;50.826;9.030;2022-08-19T06:47:18;98361.47;;;22.14;60.17
47536;BME280;33278;50.826;9.030;2022-08-19T06:49:49;98376.94;;;22.13;59.34
47536;BME280;33278;50.826;9.030;2022-08-19T06:52:19;98375.34;;;22.12;58.96
47536;BME280;33278;50.826;9.030;2022-08-19T06:54:49;98383.97;;;22.14;59.60
47536;BME280;33278;50.826;9.030;2022-08-19T06:57:20;98380.00;;;22.12;59.54
47536;BME280;33278;50.826;9.030;2022-08-19T06:59:50;98380.78;;;22.12;59.07
47536;BME280;33278;50.826;9.030;2022-08-19T07:02:21;98377.28;;;22.12;59.69
47536;BME280;33278;50.826;9.030;2022-08-19T07:04:51;98384.75;;;22.15;59.24
47536;BME280;33278;50.826;9.030;2022-08-19T07:07:22;98381.72;;;22.17;59.29
47536;BME280;33278;50.826;9.030;2022-08-19T07:09:52;98393.22;;;22.13;59.08
47536;BME280;33278;50.826;9.030;2022-08-19T07:12:23;98387.03;;;22.13;58.85
47536;BME280;33278;50.826;9.030;2022-08-19T07:14:53;98395.94;;;22.13;58.82
47536;BME280;33278;50.826;9.030;2022-08-19T07:17:24;98392.88;;;22.15;59.14
47536;BME280;33278;50.826;9.030;2022-08-19T07:19:54;98396.41;;;22.16;59.37
47536;BME280;33278;50.826;9.030;2022-08-19T07:22:25;98394.59;;;22.20;58.96
47536;BME280;33278;50.826;9.030;2022-08-19T07:24:55;98395.28;;;22.17;58.92
47536;BME280;33278;50.826;9.030;2022-08-19T07:27:25;98396.06;;;22.17;59.31
47536;BME280;33278;50.826;9.030;2022-08-19T07:29:56;98398.91;;;22.21;59.01
47536;BME280;33278;50.826;9.030;2022-08-19T07:32:26;98395.72;;;22.19;59.09
47536;BME280;33278;50.826;9.030;2022-08-19T07:34:56;98397.31;;;22.20;58.90
47536;BME280;33278;50.826;9.030;2022-08-19T07:37:27;98392.22;;;22.18;58.85
47536;BME280;33278;50.826;9.030;2022-08-19T07:40:00;98394.94;;;22.18;58.72
47536;BME280;33278;50.826;9.030;2022-08-19T07:42:30;98380.59;;;22.18;58.28
47536;BME280;33278;50.826;9.030;2022-08-19T07:45:01;98392.56;;;22.17;58.79
47536;BME280;33278;50.826;9.030;2022-08-19T07:47:31;98391.88;;;22.20;58.78
47536;BME280;33278;50.826;9.030;2022-08-19T07:50:03;98387.59;;;22.19;58.50
47536;BME280;33278;50.826;9.030;2022-08-19T07:52:34;98387.59;;;22.19;57.96
47536;BME280;33278;50.826;9.030;2022-08-19T07:55:08;98384.88;;;22.19;58.14
47536;BME280;33278;50.826;9.030;2022-08-19T07:57:40;98390.75;;;22.21;57.91
47536;BME280;33278;50.826;9.030;2022-08-19T08:00:10;98391.88;;;22.20;58.24
47536;BME280;33278;50.826;9.030;2022-08-19T08:02:41;98391.56;;;22.21;57.85
47536;BME280;33278;50.826;9.030;2022-08-19T08:05:12;98384.22;;;22.22;57.61
47536;BME280;33278;50.826;9.030;2022-08-19T08:08:01;98381.16;;;22.23;58.20
47536;BME280;33278;50.826;9.030;2022-08-19T08:10:50;98387.41;;;22.24;57.80
47536;BME280;33278;50.826;9.030;2022-08-19T08:13:20;98389.28;;;22.23;57.67
47536;BME280;33278;50.826;9.030;2022-08-19T08:15:50;98387.41;;;22.24;57.70
47536;BME280;33278;50.826;9.030;2022-08-19T08:18:21;98384.22;;;22.22;57.37
47536;BME280;33278;50.826;9.030;2022-08-19T08:20:51;98390.88;;;22.24;57.57
47536;BME280;33278;50.826;9.030;2022-08-19T08:23:22;98396.00;;;22.26;57.40
47536;BME280;33278;50.826;9.030;2022-08-19T08:25:55;98403.13;;;22.30;56.91
47536;BME280;33278;50.826;9.030;2022-08-19T08:28:26;98403.78;;;22.27;57.38
47536;BME280;33278;50.826;9.030;2022-08-19T08:30:59;98406.84;;;22.26;57.02
47536;BME280;33278;50.826;9.030;2022-08-19T08:33:30;98407.16;;;22.24;57.08
47536;BME280;33278;50.826;9.030;2022-08-19T08:36:04;98409.88;;;22.24;57.21
47536;BME280;33278;50.826;9.030;2022-08-19T08:38:35;98409.22;;;22.27;57.07
47536;BME280;33278;50.826;9.030;2022-08-19T08:41:31;98409.34;;;22.31;57.25
47536;BME280;33278;50.826;9.030;2022-08-19T08:44:04;98412.53;;;22.33;57.14
47536;BME280;33278;50.826;9.030;2022-08-19T08:46:46;98417.84;;;22.29;57.14
47536;BME280;33278;50.826;9.030;2022-08-19T08:49:29;98417.50;;;22.31;56.83
47536;BME280;33278;50.826;9.030;2022-08-19T08:52:06;98418.28;;;22.32;57.36
47536;BME280;33278;50.826;9.030;2022-08-19T08:54:44;98415.38;;;22.37;56.65
47536;BME280;33278;50.826;9.030;2022-08-19T08:57:30;98417.75;;;22.38;56.21
47536;BME280;33278;50.826;9.030;2022-08-19T09:00:07;98415.69;;;22.35;56.50
47536;BME280;33278;50.826;9.030;2022-08-19T09:02:37;98413.66;;;22.32;57.08
47536;BME280;33278;50.826;9.030;2022-08-19T09:05:09;98416.69;;;22.30;56.68
47536;BME280;33278;50.826;9.030;2022-08-19T09:13:31;98422.56;;;22.33;56.48
47536;BME280;33278;50.826;9.030;2022-08-19T09:16:12;98423.69;;;22.32;56.61
47536;BME280;33278;50.826;9.030;2022-08-19T09:18:53;98416.38;;;22.32;56.80
47536;BME280;33278;50.826;9.030;2022-08-19T09:21:24;98424.94;;;22.34;56.35
47536;BME280;33278;50.826;9.030;2022-08-19T09:23:56;98412.81;;;22.40;56.22
47536;BME280;33278;50.826;9.030;2022-08-19T09:26:27;98416.28;;;22.41;56.44
47536;BME280;33278;50.826;9.030;2022-08-19T09:28:58;98407.81;;;22.42;56.08
47536;BME280;33278;50.826;9.030;2022-08-19T09:31:29;98395.38;;;22.41;56.04
47536;BME280;33278;50.826;9.030;2022-08-19T09:34:00;98398.41;;;22.40;56.15
47536;BME280;33278;50.826;9.030;2022-08-19T09:36:31;98397.28;;;22.41;56.47
47536;BME280;33278;50.826;9.030;2022-08-19T09:39:06;98391.41;;;22.39;56.42
47536;BME280;33278;50.826;9.030;2022-08-19T09:41:36;98399.22;;;22.40;56.50
47536;BME280;33278;50.826;9.030;2022-08-19T09:44:06;98405.44;;;22.41;56.09
47536;BME280;33278;50.826;9.030;2022-08-19T09:46:37;98395.84;;;22.43;55.91
47536;BME280;33278;50.826;9.030;2022-08-19T09:49:07;98393.81;;;22.40;56.08
47536;BME280;33278;50.826;9.030;2022-08-19T09:51:38;98390.41;;;22.43;55.82
47536;BME280;33278;50.826;9.030;2022-08-19T09:54:08;98399.34;;;22.44;55.96
47536;BME280;33278;50.826;9.030;2022-08-19T09:56:38;98389.16;;;22.41;56.84
47536;BME280;33278;50.826;9.030;2022-08-19T09:59:08;98395.84;;;22.43;56.29
47536;BME280;33278;50.826;9.030;2022-08-19T10:01:40;98391.22;;;22.44;56.22
47536;BME280;33278;50.826;9.030;2022-08-19T10:04:10;98401.72;;;22.45;56.07
47536;BME280;33278;50.826;9.030;2022-08-19T10:06:40;98400.94;;;22.45;55.88
47536;BME280;33278;50.826;9.030;2022-08-19T10:09:11;98404.44;;;22.45;56.10
47536;BME280;33278;50.826;9.030;2022-08-19T10:11:44;98405.69;;;22.48;55.84
47536;BME280;33278;50.826;9.030;2022-08-19T10:14:18;98407.94;;;22.46;55.88
47536;BME280;33278;50.826;9.030;2022-08-19T10:16:52;98406.38;;;22.45;56.03
47536;BME280;33278;50.826;9.030;2022-08-19T10:19:22;98399.78;;;22.46;56.02
47536;BME280;33278;50.826;9.030;2022-08-19T10:21:53;98395.94;;;22.47;56.08
47536;BME280;33278;50.826;9.030;2022-08-19T10:24:24;98385.44;;;22.45;56.02
47536;BME280;33278;50.826;9.030;2022-08-19T10:26:56;98390.22;;;22.49;55.94
47536;BME280;33278;50.826;9.030;2022-08-19T10:29:27;98384.31;;;22.47;56.14
47536;BME280;33278;50.826;9.030;2022-08-19T10:32:02;98388.16;;;22.45;55.78
47536;BME280;33278;50.826;9.030;2022-08-19T10:34:32;98391.66;;;22.46;55.88
47536;BME280;33278;50.826;9.030;2022-08-19T10:37:05;98389.75;;;22.47;55.87
47536;BME280;33278;50.826;9.030;2022-08-19T10:39:36;98392.94;;;22.49;56.01
47536;BME280;33278;50.826;9.030;2022-08-19T10:42:07;98391.34;;;22.48;55.96
47536;BME280;33278;50.826;9.030;2022-08-19T10:44:39;98390.53;;;22.47;56.01
47536;BME280;33278;50.826;9.030;2022-08-19T10:47:10;98383.19;;;22.48;56.13
47536;BME280;33278;50.826;9.030;2022-08-19T10:49:41;98377.41;;;22.49;55.80
47536;BME280;33278;50.826;9.030;2022-08-19T10:52:29;98384.44;;;22.50;55.96
47536;BME280;33278;50.826;9.030;2022-08-19T10:55:05;98365.78;;;22.49;56.22
47536;BME280;33278;50.826;9.030;2022-08-19T10:57:55;98374.03;;;22.52;56.19
47536;BME280;33278;50.826;9.030;2022-08-19T11:00:25;98372.09;;;22.53;55.87
47536;BME280;33278;50.826;9.030;2022-08-19T11:02:55;98357.63;;;22.49;56.08
47536;BME280;33278;50.826;9.030;2022-08-19T11:05:26;98364.19;;;22.48;55.70
47536;BME280;33278;50.826;9.030;2022-08-19T11:07:56;98363.97;;;22.53;56.03
47536;BME280;33278;50.826;9.030;2022-08-19T11:10:26;98352.75;;;22.54;55.89
47536;BME280;33278;50.826;9.030;2022-08-19T11:12:57;98352.31;;;22.52;56.08
47536;BME280;33278;50.826;9.030;2022-08-19T11:15:27;98358.19;;;22.54;55.70
47536;BME280;33278;50.826;9.030;2022-08-19T11:17:58;98347.31;;;22.54;56.04
47536;BME280;33278;50.826;9.030;2022-08-19T11:20:28;98344.19;;;22.52;55.61
47536;BME280;33278;50.826;9.030;2022-08-19T11:23:00;98337.94;;;22.52;56.00
47536;BME280;33278;50.826;9.030;2022-08-19T11:25:30;98327.53;;;22.54;55.59
47536;BME280;33278;50.826;9.030;2022-08-19T11:28:00;98328.78;;;22.56;55.48
47536;BME280;33278;50.826;9.030;2022-08-19T11:30:31;98329.44;;;22.53;55.80
47536;BME280;33278;50.826;9.030;2022-08-19T11:33:02;98329.00;;;22.51;55.86
47536;BME280;33278;50.826;9.030;2022-08-19T11:35:32;98324.47;;;22.55;55.28
47536;BME280;33278;50.826;9.030;2022-08-19T11:38:03;98324.94;;;22.57;55.25
47536;BME280;33278;50.826;9.030;2022-08-19T11:40:33;98324.47;;;22.55;55.74
47536;BME280;33278;50.826;9.030;2022-08-19T11:43:04;98328.78;;;22.56;55.56
47536;BME280;33278;50.826;9.030;2022-08-19T11:45:34;98310.56;;;22.57;55.89
47536;BME280;33278;50.826;9.030;2022-08-19T11:48:05;98320.19;;;22.54;55.58
47536;BME280;33278;50.826;9.030;2022-08-19T11:50:35;98326.41;;;22.55;55.36
47536;BME280;33278;50.826;9.030;2022-08-19T11:53:06;98328.00;;;22.56;55.33
47536;BME280;33278;50.826;9.030;2022-08-19T11:55:38;98319.97;;;22.59;54.96
47536;BME280;33278;50.826;9.030;2022-08-19T11:58:09;98317.25;;;22.59;54.89
47536;BME280;33278;50.826;9.030;2022-08-19T12:00:40;98322.69;;;22.59;54.97
47536;BME280;33278;50.826;9.030;2022-08-19T12:03:11;98316.81;;;22.57;55.04
47536;BME280;33278;50.826;9.030;2022-08-19T12:05:42;98321.00;;;22.55;54.79
47536;BME280;33278;50.826;9.030;2022-08-19T12:08:12;98312.84;;;22.55;54.80
47536;BME280;33278;50.826;9.030;2022-08-19T12:10:43;98322.47;;;22.52;55.03
47536;BME280;33278;50.826;9.030;2022-08-19T12:13:14;98322.13;;;22.54;54.97
47536;BME280;33278;50.826;9.030;2022-08-19T12:15:48;98316.00;;;22.57;54.24
47536;BME280;33278;50.826;9.030;2022-08-19T12:18:19;98314.88;;;22.58;54.61
47536;BME280;33278;50.826;9.030;2022-08-19T12:20:51;98310.91;;;22.55;54.89
47536;BME280;33278;50.826;9.030;2022-08-19T12:23:23;98304.69;;;22.55;55.04
47536;BME280;33278;50.826;9.030;2022-08-19T12:25:53;98293.84;;;22.55;54.76
47536;BME280;33278;50.826;9.030;2022-08-19T12:28:24;98287.94;;;22.53;54.76
47536;BME280;33278;50.826;9.030;2022-08-19T12:30:56;98294.50;;;22.52;54.67
47536;BME280;33278;50.826;9.030;2022-08-19T12:33:26;98302.31;;;22.53;54.56
47536;BME280;33278;50.826;9.030;2022-08-19T12:36:07;98296.56;;;22.55;54.56
47536;BME280;33278;50.826;9.030;2022-08-19T12:38:39;98291.56;;;22.57;54.60
47536;BME280;33278;50.826;9.030;2022-08-19T12:41:12;98311.03;;;22.59;54.36
47536;BME280;33278;50.826;9.030;2022-08-19T12:43:43;98295.53;;;22.59;54.81
47536;BME280;33278;50.826;9.030;2022-08-19T12:46:14;98291.34;;;22.62;54.56
47536;BME280;33278;50.826;9.030;2022-08-19T12:48:45;98297.09;;;22.60;54.38
47536;BME280;33278;50.826;9.030;2022-08-19T12:51:17;98289.41;;;22.63;54.39
47536;BME280;33278;50.826;9.030;2022-08-19T12:53:49;98294.53;;;22.64;54.22
47536;BME280;33278;50.826;9.030;2022-08-19T12:56:19;98291.81;;;22.64;54.04
47536;BME280;33278;50.826;9.030;2022-08-19T12:58:50;98283.31;;;22.66;54.10
47536;BME280;33278;50.826;9.030;2022-08-19T13:01:20;98293.06;;;22.67;54.07
47536;BME280;33278;50.826;9.030;2022-08-19T13:03:51;98287.63;;;22.67;54.28
47536;BME280;33278;50.826;9.030;2022-08-19T13:06:22;98288.63;;;22.62;54.38
47536;BME280;33278;50.826;9.030;2022-08-19T13:08:54;98285.47;;;22.60;54.25
47536;BME280;33278;50.826;9.030;2022-08-19T13:11:24;98283.88;;;22.59;54.32
47536;BME280;33278;50.826;9.030;2022-08-19T13:13:55;98284.78;;;22.63;53.88
47536;BME280;33278;50.826;9.030;2022-08-19T13:16:25;98282.09;;;22.63;54.05
47536;BME280;33278;50.826;9.030;2022-08-19T13:18:57;98285.91;;;22.62;53.65
47536;BME280;33278;50.826;9.030;2022-08-19T13:21:28;98288.19;;;22.60;54.08
47536;BME280;33278;50.826;9.030;2022-08-19T13:23:59;98278.25;;;22.64;53.99
47536;BME280;33278;50.826;9.030;2022-08-19T13:26:30;98285.22;;;22.65;53.81
47536;BME280;33278;50.826;9.030;2022-08-19T13:29:00;98297.25;;;22.64;53.68
47536;BME280;33278;50.826;9.030;2022-08-19T13:31:49;98293.72;;;22.64;53.74